Impacts METAR Board INFO
IDs:

KPIT - Pittsburgh Intl, PA, US

Updated at: 1401 UTC 15 Dec 2017
Potential Impact None Slight Moderate High
Time15/02Z 15/03Z 15/04Z 15/05Z 15/06Z 15/07Z 15/08Z 15/09Z 15/10Z 15/11Z 15/12Z 15/13Z 15/14Z
VIS10 10 10 10 10 10 10 10 10 10 10 10 10
CIG220 190 190 190 160 150 130 150 160 130 31 120 120
CoverOVCOVCOVCOVCOVCOVCOVCOVCOVCOVCOVCOVCOVC
FltCatVFRVFRVFRVFRVFRVFRVFRVFRVFRVFRVFRVFRVFR
WX--------------------------
WDir000000000290000
WSpd0 0 0 0 0 0 0 0 0 3 0 0 0
WGst-- -- -- -- -- -- -- -- -- -- -- -- --
Raw hourly METARs
KPIT 150151Z 00000KT 10SM FEW036 OVC220 M07/M12 A3003 RMK AO2 SLP196 T10721117
KPIT 150251Z 00000KT 10SM FEW038 OVC190 M07/M12 A3003 RMK AO2 SLP195 T10721117 50001
KPIT 150351Z 00000KT 10SM FEW038 OVC190 M08/M12 A3003 RMK AO2 SLP196 T10781117
KPIT 150451Z 00000KT 10SM FEW038 OVC190 M08/M12 A3004 RMK AO2 SLP198 T10831117 400061089
KPIT 150551Z 00000KT 10SM OVC160 M09/M12 A3002 RMK AO2 SLP192 T10891122 11050 21089 58003
KPIT 150651Z 00000KT 10SM OVC150 M08/M12 A3000 RMK AO2 SLP183 T10831117
KPIT 150751Z 00000KT 10SM BKN130 OVC180 M08/M12 A3000 RMK AO2 SLP183 T10831117
KPIT 150851Z 00000KT 10SM BKN150 OVC220 M09/M12 A2998 RMK AO2 SLP178 T10941122 56013
KPIT 150951Z 00000KT 10SM OVC160 M09/M12 A2997 RMK AO2 SLP174 T10891117
KPIT 151051Z 29003KT 10SM OVC130 M09/M12 A2997 RMK AO2 SLP177 T10891117
KPIT 151151Z 00000KT 10SM FEW019 BKN031 OVC120 M08/M11 A2996 RMK AO2 SLP172 7//// T10781106 11078 21100 56006
KPIT 151251Z 00000KT 10SM FEW031 OVC120 M08/M11 A2995 RMK AO2 SLP170 T10831111
KPIT 151351Z 00000KT 10SM FEW029 OVC120 M08/M11 A2994 RMK AO2 SLP167 T10781106